Time;durP1;ratioP1;P1;durP2;ratioP2;P2;SDS_P1;SDS_P2;PMS_P1;PMS_P2;Temp;Humidity;BMP_temperature;BMP_pressure;BME280_temperature;BME280_humidity;BME280_pressure;Samples;Min_cycle;Max_cycle;Signal;HPM_P1;HPM_P2
2021/07/07 00:02:25;;;;;;;7.80;5.08;;;;;;;20.06;100.00;99699.75;1716172;83;21209;-78
2021/07/07 00:05:31;;;;;;;5.70;4.65;;;;;;;20.01;100.00;99697.73;1715264;83;21382;-78
2021/07/07 00:08:37;;;;;;;12.65;5.28;;;;;;;19.98;99.81;99698.78;1715486;82;21209;-78
2021/07/07 00:11:42;;;;;;;5.78;4.78;;;;;;;19.97;99.36;99698.50;1716445;83;21268;-78
2021/07/07 00:14:48;;;;;;;8.23;5.00;;;;;;;19.96;99.24;99703.20;1716909;83;21304;-78
2021/07/07 00:17:53;;;;;;;8.40;4.12;;;;;;;19.95;99.22;99704.31;1716743;83;21356;-78
2021/07/07 00:20:58;;;;;;;8.90;5.08;;;;;;;19.96;99.39;99710.14;1736488;82;21323;-78
2021/07/07 00:24:03;;;;;;;6.08;4.80;;;;;;;19.96;99.47;99714.86;1720309;83;21411;-78
2021/07/07 00:27:09;;;;;;;9.08;4.45;;;;;;;19.92;99.35;99708.97;1720408;83;21308;-79
2021/07/07 00:30:15;;;;;;;15.03;5.20;;;;;;;19.88;99.14;99711.95;1720256;83;21193;-78
2021/07/07 00:33:23;;;;;;;12.58;4.65;;;;;;;19.83;98.34;99713.25;1719436;83;21316;-78
2021/07/07 00:36:28;;;;;;;7.58;4.47;;;;;;;19.81;98.21;99714.06;1720340;83;21316;-78
2021/07/07 00:39:27;;;;;;;7.28;4.78;;;;;;;19.80;98.14;99718.73;1720285;83;21348;-78
2021/07/07 00:42:31;;;;;;;7.42;3.90;;;;;;;19.79;97.55;99723.16;1721334;83;21249;-78
2021/07/07 00:45:36;;;;;;;15.78;4.40;;;;;;;19.77;97.04;99726.75;1720964;83;21308;-78
2021/07/07 00:48:45;;;;;;;10.60;4.62;;;;;;;19.75;96.95;99723.37;1720448;83;21197;-78
2021/07/07 00:51:52;;;;;;;7.87;4.37;;;;;;;19.71;97.11;99736.05;1720783;83;21860;-78
2021/07/07 00:54:57;;;;;;;8.00;4.42;;;;;;;19.69;96.98;99727.98;1720384;83;21850;-79
2021/07/07 00:58:02;;;;;;;5.87;4.25;;;;;;;19.68;96.83;99737.96;1720437;83;21194;-79
2021/07/07 01:01:09;;;;;;;8.53;4.05;;;;;;;19.64;96.67;99734.84;1720410;83;21311;-78
2021/07/07 01:04:16;;;;;;;12.43;4.40;;;;;;;19.63;96.62;99735.38;1706451;83;21344;-78
2021/07/07 01:07:23;;;;;;;7.72;3.80;;;;;;;19.65;96.56;99735.13;1719027;83;21202;-79
2021/07/07 01:10:30;;;;;;;9.55;4.47;;;;;;;19.67;96.08;99735.73;1720300;83;21759;-78
2021/07/07 01:13:35;;;;;;;9.88;4.55;;;;;;;19.65;95.72;99740.13;1719699;83;21597;-78
2021/07/07 01:16:43;;;;;;;8.53;3.98;;;;;;;19.63;95.46;99740.09;1720247;83;21201;-79
2021/07/07 01:19:51;;;;;;;9.05;4.30;;;;;;;19.60;95.52;99755.30;1718863;83;21196;-78
2021/07/07 01:22:57;;;;;;;7.53;4.37;;;;;;;19.59;95.42;99752.20;1718162;83;21775;-79
2021/07/07 01:26:03;;;;;;;8.33;4.45;;;;;;;19.59;95.14;99759.13;1727339;83;21191;-78
2021/07/07 01:29:08;;;;;;;7.10;4.25;;;;;;;19.56;94.77;99763.77;1717198;83;21766;-79
2021/07/07 01:32:14;;;;;;;8.70;3.58;;;;;;;19.55;94.78;99762.65;1727299;83;21294;-79
2021/07/07 01:35:20;;;;;;;10.35;4.20;;;;;;;19.55;94.62;99765.42;1716960;83;21243;-78
2021/07/07 01:38:25;;;;;;;6.92;3.90;;;;;;;19.56;94.39;99758.23;1727221;83;21305;-79
2021/07/07 01:41:31;;;;;;;8.65;3.70;;;;;;;19.54;93.87;99763.20;1717230;83;21298;-78
2021/07/07 01:44:36;;;;;;;9.78;3.70;;;;;;;19.51;93.67;99763.68;1727246;83;21286;-78
2021/07/07 01:47:42;;;;;;;13.28;3.65;;;;;;;19.51;93.63;99771.16;1717746;83;21295;-79
2021/07/07 01:50:49;;;;;;;8.13;3.80;;;;;;;19.52;93.50;99772.30;1716837;83;21212;-78
2021/07/07 01:53:56;;;;;;;8.65;3.83;;;;;;;19.53;93.52;99772.62;1726741;83;21313;-79
2021/07/07 01:57:00;;;;;;;10.70;3.98;;;;;;;19.53;93.05;99777.33;1717159;83;21302;-79
2021/07/07 02:00:06;;;;;;;6.58;3.95;;;;;;;19.48;92.89;99775.30;1727327;83;21187;-78
2021/07/07 02:03:11;;;;;;;7.53;4.15;;;;;;;19.45;92.74;99779.94;1690316;83;21311;-77
2021/07/07 02:06:18;;;;;;;10.00;3.80;;;;;;;19.44;92.83;99784.36;1726845;83;21241;-78
2021/07/07 02:09:23;;;;;;;12.18;3.90;;;;;;;19.41;92.72;99785.13;1717291;83;21825;-78
2021/07/07 02:12:30;;;;;;;8.08;3.77;;;;;;;19.36;92.83;99775.33;1727383;83;21301;-78
2021/07/07 02:15:39;;;;;;;14.55;4.10;;;;;;;19.33;93.11;99775.80;1718296;83;21196;-78
2021/07/07 02:18:45;;;;;;;10.65;3.80;;;;;;;19.33;93.16;99779.13;1726562;83;21243;-78
2021/07/07 02:21:51;;;;;;;10.03;3.60;;;;;;;19.31;93.05;99775.22;1716466;83;21241;-78
2021/07/07 02:24:56;;;;;;;7.67;4.20;;;;;;;19.29;93.16;99770.48;1716148;83;21927;-78
2021/07/07 02:28:02;;;;;;;5.80;3.87;;;;;;;19.28;93.38;99765.16;1715560;83;21343;-77
2021/07/07 02:31:08;;;;;;;8.45;4.00;;;;;;;19.27;92.94;99774.03;1716797;83;21304;-78
2021/07/07 02:34:13;;;;;;;6.75;3.98;;;;;;;19.27;92.91;99773.19;1716369;83;21312;-77
2021/07/07 02:37:19;;;;;;;5.35;3.10;;;;;;;19.28;93.20;99777.64;1715737;83;21351;-78
2021/07/07 02:40:25;;;;;;;8.60;4.00;;;;;;;19.29;93.34;99777.93;1715376;83;21771;-78
2021/07/07 02:43:30;;;;;;;10.45;3.98;;;;;;;19.30;92.83;99781.86;1716748;83;21194;-78
2021/07/07 02:46:37;;;;;;;6.70;3.50;;;;;;;19.32;92.70;99783.83;1715287;83;21240;-78
2021/07/07 02:49:43;;;;;;;10.53;3.95;;;;;;;19.32;92.78;99787.16;1715546;83;22670;-77
2021/07/07 02:52:49;;;;;;;10.28;3.58;;;;;;;19.32;92.58;99787.16;1715736;83;21221;-78
2021/07/07 02:55:54;;;;;;;8.08;3.60;;;;;;;19.32;92.32;99785.22;1715712;83;21892;-77
2021/07/07 02:59:01;;;;;;;5.75;3.90;;;;;;;19.33;92.08;99796.60;1715432;83;21189;-78
2021/07/07 03:02:06;;;;;;;7.28;3.90;;;;;;;19.35;91.59;99800.54;1716802;83;21898;-78
2021/07/07 03:05:13;;;;;;;5.12;3.37;;;;;;;19.33;91.12;99799.38;1716062;83;21331;-78
2021/07/07 03:08:21;;;;;;;9.10;3.25;;;;;;;19.33;90.68;99801.31;1715538;83;21344;-78
2021/07/07 03:11:26;;;;;;;14.40;3.30;;;;;;;19.31;90.75;99808.50;1716549;83;21900;-78
2021/07/07 03:14:31;;;;;;;8.23;3.47;;;;;;;19.32;90.85;99803.79;1715370;83;21244;-78
2021/07/07 03:17:38;;;;;;;7.85;3.62;;;;;;;19.31;90.97;99805.72;1715267;83;21248;-78
2021/07/07 03:20:45;;;;;;;6.85;3.20;;;;;;;19.28;91.05;99812.30;1716878;83;21249;-78
2021/07/07 03:23:50;;;;;;;7.87;3.22;;;;;;;19.27;91.15;99807.84;1716824;82;21776;-78
2021/07/07 03:26:56;;;;;;;6.20;3.20;;;;;;;19.28;91.23;99815.06;1716804;83;21299;-79
2021/07/07 03:30:03;;;;;;;9.85;3.35;;;;;;;19.29;91.39;99816.75;1716703;83;21324;-78
2021/07/07 03:33:08;;;;;;;4.85;3.17;;;;;;;19.29;91.54;99813.98;1716630;83;21213;-78
2021/07/07 03:36:14;;;;;;;5.17;3.42;;;;;;;19.26;91.49;99829.19;1715749;83;21308;-79
2021/07/07 03:39:19;;;;;;;6.87;3.05;;;;;;;19.23;91.67;99835.21;1716860;83;21304;-78
2021/07/07 03:42:26;;;;;;;10.90;3.50;;;;;;;19.19;91.89;99835.39;1716821;83;21348;-79
2021/07/07 03:45:32;;;;;;;4.58;3.17;;;;;;;19.17;92.04;99833.97;1716271;83;21732;-78
2021/07/07 03:48:38;;;;;;;8.48;3.25;;;;;;;19.20;92.08;99834.88;1716648;83;21308;-78
2021/07/07 03:51:43;;;;;;;5.67;2.92;;;;;;;19.23;92.09;99845.46;1715405;83;21256;-78
2021/07/07 03:54:49;;;;;;;8.98;3.02;;;;;;;19.23;92.20;99847.69;1716792;83;21296;-78
2021/07/07 03:57:55;;;;;;;7.80;3.55;;;;;;;19.27;92.19;99850.82;1716851;83;21244;-78
2021/07/07 04:01:00;;;;;;;6.05;3.37;;;;;;;19.22;92.20;99846.55;1716723;83;21832;-79
2021/07/07 04:04:05;;;;;;;8.03;3.20;;;;;;;19.21;92.50;99849.03;1716904;83;21353;-79
2021/07/07 04:07:12;;;;;;;11.08;3.85;;;;;;;19.18;92.67;99850.89;1715402;83;21410;-78
2021/07/07 04:10:19;;;;;;;5.67;3.35;;;;;;;19.15;92.98;99846.70;1717472;83;21197;-77
2021/07/07 04:13:27;;;;;;;7.25;3.17;;;;;;;19.11;93.25;99856.04;1716999;83;21205;-78
2021/07/07 04:16:32;;;;;;;6.05;3.83;;;;;;;19.05;93.80;99856.98;1716009;83;21312;-78
2021/07/07 04:19:39;;;;;;;6.90;3.65;;;;;;;19.03;94.26;99859.72;1716818;83;21201;-78
2021/07/07 04:22:44;;;;;;;6.85;3.20;;;;;;;19.01;94.78;99865.52;1716565;83;21791;-78
2021/07/07 04:25:50;;;;;;;4.55;3.12;;;;;;;18.98;95.32;99866.53;1715484;82;21331;-78
2021/07/07 04:28:57;;;;;;;6.67;3.83;;;;;;;18.96;95.85;99879.26;1716999;83;21328;-78
2021/07/07 04:32:03;;;;;;;5.70;3.05;;;;;;;18.88;96.27;99875.45;1716771;83;21312;-78
2021/07/07 04:35:09;;;;;;;8.25;2.80;;;;;;;18.88;96.85;99879.61;1716647;83;21189;-79
2021/07/07 04:38:16;;;;;;;6.42;3.10;;;;;;;18.89;97.05;99882.13;1716697;83;21292;-78
2021/07/07 04:41:21;;;;;;;4.67;3.27;;;;;;;18.87;96.93;99887.63;1716689;83;21199;-79
2021/07/07 04:44:27;;;;;;;7.28;3.72;;;;;;;18.85;96.93;99887.02;1716829;83;21196;-78
2021/07/07 04:47:33;;;;;;;5.55;3.10;;;;;;;18.80;97.14;99887.73;1716362;83;21360;-78
2021/07/07 04:50:39;;;;;;;13.90;3.70;;;;;;;18.82;97.57;99891.12;1717055;83;21189;-78
2021/07/07 04:53:45;;;;;;;5.58;3.55;;;;;;;18.87;97.70;99895.95;1720843;82;21354;-79
2021/07/07 04:56:51;;;;;;;7.45;3.35;;;;;;;18.91;97.71;99895.73;1744956;82;21303;-77
2021/07/07 04:59:55;;;;;;;9.65;4.42;;;;;;;18.96;97.63;99892.24;1755857;81;21910;-77
2021/07/07 05:03:01;;;;;;;11.22;3.33;;;;;;;18.99;97.25;99889.84;1736190;82;21681;-77
2021/07/07 05:06:07;;;;;;;10.20;3.87;;;;;;;19.05;97.07;99901.34;1710104;83;21874;-78
2021/07/07 05:09:15;;;;;;;5.67;3.67;;;;;;;19.10;96.71;99909.80;1715204;83;21887;-79
2021/07/07 05:12:21;;;;;;;11.28;3.50;;;;;;;19.11;96.68;99907.32;1710133;83;21350;-78
2021/07/07 05:15:28;;;;;;;9.58;3.87;;;;;;;19.15;97.09;99914.07;1703724;83;21174;-79
2021/07/07 05:18:34;;;;;;;16.95;4.72;;;;;;;19.18;97.17;99905.80;1691015;83;21181;-78
2021/07/07 05:21:40;;;;;;;4.65;3.67;;;;;;;19.23;97.10;99910.06;1702999;83;21791;-78
2021/07/07 05:24:46;;;;;;;7.92;3.33;;;;;;;19.24;97.11;99912.30;1684422;83;21815;-78
2021/07/07 05:27:51;;;;;;;6.47;4.33;;;;;;;19.25;97.44;99920.39;1691999;84;21246;-79
2021/07/07 05:31:01;;;;;;;5.67;4.40;;;;;;;19.21;97.65;99921.12;1685534;85;21325;-79
2021/07/07 05:33:56;;;;;;;5.85;4.40;;;;;;;19.22;98.36;99923.64;1695035;84;21892;-79
2021/07/07 05:37:00;;;;;;;12.03;4.60;;;;;;;19.21;98.96;99928.89;1685617;85;21329;-79
2021/07/07 05:40:05;;;;;;;9.00;4.45;;;;;;;19.19;99.51;99928.81;1691088;84;21235;-79
2021/07/07 05:43:10;;;;;;;8.70;4.70;;;;;;;19.15;100.00;99928.48;1691274;83;21294;-79
2021/07/07 05:46:16;;;;;;;8.40;4.67;;;;;;;19.12;100.00;99925.63;1676620;84;21325;-79
2021/07/07 05:49:22;;;;;;;10.05;4.80;;;;;;;19.08;100.00;99926.36;1681111;83;21299;-78
2021/07/07 05:52:27;;;;;;;6.20;4.47;;;;;;;19.01;100.00;99938.96;1672934;85;21240;-78
2021/07/07 05:55:32;;;;;;;7.72;4.67;;;;;;;18.99;100.00;99933.34;1695178;83;21378;-78
2021/07/07 05:58:38;;;;;;;6.03;4.67;;;;;;;18.98;100.00;99946.36;1689490;84;21290;-78
2021/07/07 06:01:43;;;;;;;7.53;4.83;;;;;;;18.98;100.00;99945.52;1700484;83;21286;-78
2021/07/07 06:04:49;;;;;;;7.58;5.33;;;;;;;19.01;100.00;99950.59;1694003;83;21290;-78
2021/07/07 06:07:55;;;;;;;8.83;4.50;;;;;;;19.02;100.00;99960.05;1666354;85;21609;-78
2021/07/07 06:11:00;;;;;;;6.70;4.40;;;;;;;19.04;100.00;99957.86;1690843;84;21844;-77
2021/07/07 06:14:05;;;;;;;8.45;4.50;;;;;;;19.07;100.00;99952.39;1696460;83;21167;-78
2021/07/07 06:17:11;;;;;;;9.95;4.53;;;;;;;19.08;100.00;99961.01;1696971;83;21324;-78
2021/07/07 06:20:20;;;;;;;8.13;4.28;;;;;;;19.12;100.00;99959.44;1687645;84;21290;-77
2021/07/07 06:23:24;;;;;;;6.47;4.33;;;;;;;19.17;100.00;99965.65;1687529;84;21348;-78
2021/07/07 06:26:31;;;;;;;5.67;4.67;;;;;;;19.20;100.00;99972.11;1678720;83;21289;-79
2021/07/07 06:29:30;;;;;;;5.97;4.50;;;;;;;19.22;100.00;99976.86;1713796;83;21185;-79
2021/07/07 06:32:23;;;;;;;6.35;3.77;;;;;;;19.25;100.00;99975.00;1712777;83;21882;-78
2021/07/07 06:35:36;;;;;;;5.50;3.72;;;;;;;19.23;100.00;99979.38;1717646;83;21778;-79
2021/07/07 06:38:35;;;;;;;4.72;3.30;;;;;;;19.24;100.00;99982.99;1717434;83;21315;-78
2021/07/07 06:41:40;;;;;;;6.70;3.25;;;;;;;19.25;100.00;99991.64;1713578;83;21371;-78
2021/07/07 06:44:46;;;;;;;8.25;4.05;;;;;;;19.26;100.00;99994.16;1716036;83;21354;-78
2021/07/07 06:47:53;;;;;;;5.25;3.60;;;;;;;19.30;100.00;99982.89;1714993;83;21842;-79
2021/07/07 06:50:58;;;;;;;6.05;3.60;;;;;;;19.37;100.00;99998.01;1716659;83;21728;-79
2021/07/07 06:54:06;;;;;;;3.87;3.15;;;;;;;19.39;100.00;99997.24;1708360;83;21229;-79
2021/07/07 06:57:11;;;;;;;3.90;3.00;;;;;;;19.41;100.00;99995.89;1711017;83;21331;-79
2021/07/07 07:00:21;;;;;;;3.75;3.05;;;;;;;19.48;100.00;100004.11;1715844;83;21264;-80
2021/07/07 07:03:27;;;;;;;4.40;3.33;;;;;;;19.51;100.00;100015.25;1709704;83;21299;-80
2021/07/07 07:06:32;;;;;;;5.70;2.92;;;;;;;19.52;100.00;100012.22;1691095;83;21387;-80
2021/07/07 07:09:37;;;;;;;7.70;3.50;;;;;;;19.50;100.00;100014.95;1708962;83;21839;-78
2021/07/07 07:12:43;;;;;;;8.78;2.72;;;;;;;19.51;100.00;100020.25;1700716;83;21307;-79
2021/07/07 07:15:50;;;;;;;4.03;2.77;;;;;;;19.57;100.00;100017.91;1709329;83;21315;-79
2021/07/07 07:18:56;;;;;;;5.72;2.87;;;;;;;19.61;100.00;100028.83;1702361;83;21699;-79
2021/07/07 07:22:02;;;;;;;7.58;2.95;;;;;;;19.68;100.00;100023.73;1699827;83;21319;-79
2021/07/07 07:25:08;;;;;;;4.45;2.85;;;;;;;19.80;100.00;100023.98;1713126;83;21318;-79
2021/07/07 07:28:13;;;;;;;3.37;2.52;;;;;;;19.90;100.00;100028.40;1706623;82;21322;-79
2021/07/07 07:31:19;;;;;;;4.55;2.87;;;;;;;19.89;100.00;100030.02;1710974;83;21283;-79
2021/07/07 07:34:24;;;;;;;4.33;2.92;;;;;;;19.93;100.00;100036.77;1691910;83;21173;-78
2021/07/07 07:37:40;;;;;;;7.42;2.65;;;;;;;20.00;100.00;100031.94;1705873;83;21260;-78
2021/07/07 07:40:47;;;;;;;4.67;2.72;;;;;;;20.07;100.00;100033.17;1704446;82;21340;-79
2021/07/07 07:43:51;;;;;;;5.90;2.83;;;;;;;20.10;100.00;100037.70;1692924;83;21847;-78
2021/07/07 07:46:58;;;;;;;4.08;3.20;;;;;;;20.14;100.00;100036.13;1710460;83;21535;-78
2021/07/07 07:50:03;;;;;;;3.92;3.20;;;;;;;20.16;100.00;100036.70;1700989;83;21326;-78
2021/07/07 07:53:10;;;;;;;5.67;3.30;;;;;;;20.20;100.00;100043.17;1712552;83;21875;-78
2021/07/07 07:56:16;;;;;;;5.40;3.40;;;;;;;20.24;100.00;100045.76;1708763;83;21339;-78
2021/07/07 07:59:22;;;;;;;4.05;3.33;;;;;;;20.29;100.00;100052.80;1707175;82;21295;-78
2021/07/07 08:02:27;;;;;;;4.42;3.30;;;;;;;20.33;100.00;100056.23;1706399;82;21173;-78
2021/07/07 08:05:34;;;;;;;7.92;3.30;;;;;;;20.41;100.00;100059.14;1705830;83;21318;-78
2021/07/07 08:08:39;;;;;;;5.10;3.10;;;;;;;20.48;100.00;100071.00;1712823;82;21281;-78
2021/07/07 08:11:46;;;;;;;3.45;3.00;;;;;;;20.46;100.00;100071.74;1712522;83;21296;-78
2021/07/07 08:14:52;;;;;;;3.30;2.55;;;;;;;20.42;100.00;100073.35;1706568;83;21898;-79
2021/07/07 08:17:58;;;;;;;4.10;3.17;;;;;;;20.48;100.00;100071.00;1715843;82;21181;-79
2021/07/07 08:21:04;;;;;;;5.40;2.77;;;;;;;20.58;100.00;100075.91;1714085;83;21288;-78
2021/07/07 08:24:09;;;;;;;3.27;2.45;;;;;;;20.75;100.00;100078.72;1710212;83;21252;-79
2021/07/07 08:27:14;;;;;;;3.50;2.95;;;;;;;20.86;100.00;100079.23;1706462;83;21973;-78
2021/07/07 08:30:21;;;;;;;4.10;2.85;;;;;;;20.91;100.00;100090.44;1734100;82;21606;-78
2021/07/07 08:33:27;;;;;;;4.80;3.20;;;;;;;20.91;100.00;100092.67;1741954;82;21295;-78
2021/07/07 08:36:32;;;;;;;7.15;2.98;;;;;;;20.92;100.00;100097.13;1707286;83;21211;-78
2021/07/07 08:39:38;;;;;;;10.35;3.50;;;;;;;20.97;99.96;100090.83;1715058;83;21842;-78
2021/07/07 08:42:47;;;;;;;8.50;3.50;;;;;;;20.96;98.66;100093.87;1718453;83;21217;-78
2021/07/07 08:45:54;;;;;;;5.67;3.30;;;;;;;20.97;98.78;100090.83;1718805;83;21193;-78
2021/07/07 08:49:00;;;;;;;7.92;3.52;;;;;;;21.00;99.46;100086.16;1718754;83;21243;-79
2021/07/07 08:52:06;;;;;;;4.47;2.62;;;;;;;21.16;100.00;100092.28;1715254;83;21142;-78
2021/07/07 08:55:16;;;;;;;4.12;2.58;;;;;;;21.33;98.97;100083.16;1715916;83;21792;-78
2021/07/07 08:58:24;;;;;;;3.52;2.80;;;;;;;21.43;97.89;100088.33;1713959;83;21229;-78
2021/07/07 09:01:29;;;;;;;4.25;2.40;;;;;;;21.52;95.95;100086.52;1716498;83;21288;-79
2021/07/07 09:04:50;;;;;;;2.50;2.30;;;;;;;21.59;96.20;100088.02;1717882;83;21283;-79
2021/07/07 09:07:55;;;;;;;3.70;2.60;;;;;;;21.62;94.78;100087.52;1716741;83;21180;-79
2021/07/07 09:11:02;;;;;;;5.47;2.65;;;;;;;21.68;94.69;100087.05;1717250;83;21346;-80
2021/07/07 09:14:23;;;;;;;5.60;2.85;;;;;;;21.69;94.38;100088.20;1711721;83;21308;-79
2021/07/07 09:17:27;;;;;;;5.20;2.70;;;;;;;21.64;94.55;100090.91;1716057;83;21755;-79
2021/07/07 09:20:44;;;;;;;5.12;2.65;;;;;;;21.58;94.90;100107.77;1706796;83;21307;-79
2021/07/07 09:23:53;;;;;;;3.80;2.40;;;;;;;21.53;94.52;100112.69;1714349;83;21331;-79
2021/07/07 09:27:21;;;;;;;3.00;2.30;;;;;;;21.51;94.13;100114.91;1714129;83;21206;-78
2021/07/07 09:30:27;;;;;;;9.90;2.77;;;;;;;21.61;95.30;100119.79;1714457;83;21636;-78
2021/07/07 09:33:33;;;;;;;2.83;2.20;;;;;;;21.69;94.72;100118.81;1714632;83;21917;-78
2021/07/07 09:36:42;;;;;;;3.72;2.17;;;;;;;21.81;94.39;100109.52;1711606;83;21194;-78
2021/07/07 09:39:48;;;;;;;4.20;2.50;;;;;;;21.91;92.64;100112.45;1711013;82;21299;-78
2021/07/07 09:42:54;;;;;;;3.10;2.60;;;;;;;21.93;92.20;100117.23;1702533;82;21674;-78
2021/07/07 09:46:02;;;;;;;3.35;2.20;;;;;;;21.98;91.68;100111.73;1716839;83;21295;-79
2021/07/07 09:49:07;;;;;;;2.85;2.15;;;;;;;22.06;91.82;100116.00;1699542;83;21867;-77
2021/07/07 09:52:13;;;;;;;2.65;2.22;;;;;;;22.09;91.25;100115.50;1714643;83;21967;-77
2021/07/07 09:55:19;;;;;;;3.98;2.30;;;;;;;22.20;90.26;100122.36;1702291;83;21284;-77
2021/07/07 09:58:24;;;;;;;3.40;2.30;;;;;;;22.35;89.19;100112.56;1687434;85;21391;-77
2021/07/07 10:01:30;;;;;;;5.30;2.70;;;;;;;22.46;88.63;100121.33;1711773;83;21724;-77
2021/07/07 10:04:36;;;;;;;3.47;2.15;;;;;;;22.53;87.84;100112.76;1716548;83;21280;-78
2021/07/07 10:07:42;;;;;;;3.22;2.42;;;;;;;22.53;87.85;100126.70;1716423;83;21173;-77
2021/07/07 10:10:49;;;;;;;2.60;1.92;;;;;;;22.54;87.26;100132.59;1715738;83;21356;-77
2021/07/07 10:13:55;;;;;;;4.55;2.33;;;;;;;22.51;87.51;100124.17;1716356;83;21764;-77
2021/07/07 10:17:01;;;;;;;2.10;1.90;;;;;;;22.51;88.55;100133.93;1715134;83;21245;-77
2021/07/07 10:20:07;;;;;;;5.05;1.98;;;;;;;22.58;87.94;100129.54;1716816;83;21862;-77
2021/07/07 10:23:16;;;;;;;3.00;1.70;;;;;;;22.64;86.96;100136.33;1716882;83;21201;-77
2021/07/07 10:26:22;;;;;;;2.12;1.85;;;;;;;22.65;87.70;100145.53;1718956;82;21218;-77
2021/07/07 10:29:28;;;;;;;2.12;1.70;;;;;;;22.74;87.85;100150.11;1699390;83;21276;-77
2021/07/07 10:32:34;;;;;;;4.60;2.00;;;;;;;22.84;86.61;100162.77;1714339;82;21315;-77
2021/07/07 10:35:40;;;;;;;4.40;1.95;;;;;;;22.78;85.26;100161.88;1715908;83;21324;-77
2021/07/07 10:38:45;;;;;;;2.95;1.90;;;;;;;22.74;86.35;100162.09;1716724;83;21887;-77
2021/07/07 10:41:56;;;;;;;3.92;2.00;;;;;;;22.78;85.55;100170.80;1715701;83;21315;-77
2021/07/07 10:45:02;;;;;;;2.55;2.00;;;;;;;22.75;84.26;100164.33;1717623;83;21189;-77
2021/07/07 10:48:38;;;;;;;5.70;2.62;;;;;;;22.75;84.87;100165.72;1718780;82;21315;-77
2021/07/07 10:51:42;;;;;;;4.67;2.40;;;;;;;22.79;84.89;100169.68;1717822;82;21784;-77
2021/07/07 10:54:48;;;;;;;6.75;2.35;;;;;;;22.79;84.36;100177.49;1698724;83;21796;-77
2021/07/07 10:57:54;;;;;;;3.37;2.45;;;;;;;22.71;83.87;100180.17;1716470;83;21257;-77
2021/07/07 11:00:59;;;;;;;5.33;2.42;;;;;;;22.66;83.92;100184.29;1709647;82;21287;-77
2021/07/07 11:04:09;;;;;;;3.72;2.58;;;;;;;22.64;84.18;100183.72;1716528;83;21169;-77
2021/07/07 11:07:41;;;;;;;4.53;2.37;;;;;;;22.70;84.23;100192.44;1716889;83;21843;-77
2021/07/07 11:11:01;;;;;;;3.50;2.27;;;;;;;22.76;84.70;100183.58;1716783;82;21887;-77
2021/07/07 11:14:08;;;;;;;5.10;2.33;;;;;;;22.84;83.64;100192.05;1716456;83;21323;-77
2021/07/07 11:17:14;;;;;;;3.22;2.40;;;;;;;22.83;84.09;100192.60;1698802;83;21854;-77
2021/07/07 11:20:27;;;;;;;5.65;3.17;;;;;;;22.85;84.48;100195.12;1682039;83;21787;-77
2021/07/07 11:23:32;;;;;;;5.50;2.85;;;;;;;22.84;83.91;100194.84;1728874;82;21288;-77
2021/07/07 11:26:39;;;;;;;3.47;2.83;;;;;;;22.81;84.61;100202.31;1740270;82;21272;-77
2021/07/07 11:29:44;;;;;;;4.75;3.00;;;;;;;22.82;85.12;100197.89;1739648;82;21304;-77
2021/07/07 11:32:59;;;;;;;5.12;3.05;;;;;;;22.84;85.32;100201.80;1740370;81;21240;-77
2021/07/07 11:36:00;;;;;;;8.63;4.28;;;;;;;22.88;85.73;100201.58;1740145;82;21304;-77
2021/07/07 11:39:14;;;;;;;6.72;4.10;;;;;;;22.90;85.51;100198.84;1713526;82;21310;-77
2021/07/07 11:42:21;;;;;;;5.60;4.00;;;;;;;22.92;85.32;100198.05;1687852;85;21253;-77
2021/07/07 11:45:38;;;;;;;5.47;4.40;;;;;;;22.88;84.88;100205.21;1687761;85;21339;-77
2021/07/07 11:48:47;;;;;;;11.57;4.03;;;;;;;22.90;85.06;100190.47;1688016;85;21359;-77
2021/07/07 11:51:52;;;;;;;7.58;4.45;;;;;;;22.93;85.24;100190.52;1688732;85;21852;-77
2021/07/07 11:55:00;;;;;;;11.43;4.20;;;;;;;22.97;85.65;100197.27;1702888;82;21827;-77
2021/07/07 11:58:06;;;;;;;4.97;4.20;;;;;;;22.97;86.21;100200.61;1716715;83;21859;-77
2021/07/07 12:01:17;;;;;;;5.42;4.03;;;;;;;23.02;84.74;100193.14;1725271;82;21224;-77
2021/07/07 12:04:23;;;;;;;10.00;4.03;;;;;;;23.03;85.10;100192.03;1738277;82;21784;-77
2021/07/07 12:07:28;;;;;;;5.40;3.50;;;;;;;23.15;85.68;100191.34;1739565;82;21928;-77
2021/07/07 12:10:36;;;;;;;9.68;4.60;;;;;;;23.20;84.54;100199.77;1738370;82;21811;-77
2021/07/07 12:13:42;;;;;;;3.87;3.47;;;;;;;23.30;83.91;100196.80;1738630;82;21339;-78
2021/07/07 12:16:46;;;;;;;5.17;3.37;;;;;;;23.36;82.89;100197.13;1738719;82;21811;-78
2021/07/07 12:19:53;;;;;;;8.48;3.65;;;;;;;23.37;82.95;100201.59;1738150;81;21193;-78
2021/07/07 12:23:10;;;;;;;3.40;3.08;;;;;;;23.41;83.05;100198.58;1736485;82;21320;-78
2021/07/07 12:26:16;;;;;;;4.15;3.20;;;;;;;23.48;81.57;100196.42;1717283;83;21308;-78
2021/07/07 12:29:31;;;;;;;6.03;3.70;;;;;;;23.57;82.40;100201.82;1680007;84;21192;-77
2021/07/07 12:32:37;;;;;;;5.50;2.95;;;;;;;23.71;82.25;100199.44;1698314;82;21221;-77
2021/07/07 12:35:44;;;;;;;8.95;2.90;;;;;;;23.82;81.58;100203.18;1688073;85;21307;-78
2021/07/07 12:38:56;;;;;;;5.67;3.40;;;;;;;23.89;81.03;100201.83;1700853;83;21850;-78
2021/07/07 12:42:15;;;;;;;6.92;3.35;;;;;;;23.95;81.74;100201.34;1716704;83;21310;-78
2021/07/07 12:45:22;;;;;;;6.92;3.40;;;;;;;24.04;81.21;100201.09;1716529;83;21338;-77
2021/07/07 12:48:26;;;;;;;10.05;3.35;;;;;;;24.20;80.51;100207.10;1716745;83;21739;-78
2021/07/07 12:51:36;;;;;;;5.03;3.47;;;;;;;24.34;79.90;100213.63;1687743;85;21820;-78
2021/07/07 12:54:41;;;;;;;10.88;3.40;;;;;;;24.41;78.72;100206.70;1686078;85;21308;-78
2021/07/07 12:58:18;;;;;;;5.12;3.20;;;;;;;24.47;78.65;100215.42;1687363;82;21327;-78
2021/07/07 13:01:29;;;;;;;7.75;3.12;;;;;;;24.53;77.66;100212.09;1718564;82;21173;-78
2021/07/07 13:04:35;;;;;;;4.97;3.17;;;;;;;24.58;76.90;100209.32;1738667;82;21292;-78
2021/07/07 13:07:40;;;;;;;7.62;2.58;;;;;;;24.62;74.03;100216.06;1739553;82;21265;-78
2021/07/07 13:10:50;;;;;;;6.75;2.62;;;;;;;24.65;73.80;100215.49;1739441;82;21304;-78
2021/07/07 13:13:59;;;;;;;4.28;2.87;;;;;;;24.71;72.46;100216.39;1740621;82;21288;-78
2021/07/07 13:17:05;;;;;;;;;;;;;;;24.79;72.68;100221.44;1741912;82;21173;-78
2021/07/07 13:20:12;;;;;;;5.95;2.47;;;;;;;24.73;71.09;100212.75;1738090;81;20249;-78
2021/07/07 13:23:18;;;;;;;4.75;2.70;;;;;;;24.59;71.64;100224.98;1739784;82;21734;-78
2021/07/07 13:26:33;;;;;;;4.03;2.45;;;;;;;24.57;73.75;100225.81;1739487;82;21185;-78
2021/07/07 13:29:55;;;;;;;7.40;3.00;;;;;;;24.60;73.05;100228.05;1739952;82;21332;-78
2021/07/07 13:32:59;;;;;;;10.13;2.60;;;;;;;24.69;73.52;100233.42;1738718;82;21347;-78
2021/07/07 13:36:05;;;;;;;5.97;2.58;;;;;;;24.85;73.19;100236.31;1744274;81;21224;-78
2021/07/07 13:39:18;;;;;;;4.67;2.55;;;;;;;24.93;71.91;100235.77;1743073;82;21212;-78
2021/07/07 13:42:24;;;;;;;3.70;2.37;;;;;;;24.95;71.70;100232.16;1718216;83;21174;-78
2021/07/07 13:45:29;;;;;;;5.80;2.35;;;;;;;24.96;72.11;100230.48;1726399;83;21180;-78
2021/07/07 13:48:35;;;;;;;4.67;2.55;;;;;;;24.96;71.52;100238.03;1716832;83;21216;-77
2021/07/07 13:51:41;;;;;;;10.10;2.40;;;;;;;24.99;72.72;100245.89;1725853;83;21210;-78
2021/07/07 13:54:47;;;;;;;4.67;2.83;;;;;;;25.02;71.65;100242.52;1716350;83;21220;-79
2021/07/07 13:57:53;;;;;;;7.08;2.60;;;;;;;25.07;72.01;100253.77;1723206;83;21275;-78
2021/07/07 14:00:59;;;;;;;3.37;2.40;;;;;;;25.15;72.31;100250.45;1717188;83;21304;-78
2021/07/07 14:04:05;;;;;;;4.70;2.30;;;;;;;25.24;70.00;100261.40;1725976;83;21183;-78
2021/07/07 14:07:12;;;;;;;3.35;2.47;;;;;;;25.30;69.46;100264.21;1716780;83;21272;-78
2021/07/07 14:10:19;;;;;;;6.70;2.45;;;;;;;25.34;68.26;100258.34;1726588;83;21228;-78
2021/07/07 14:13:25;;;;;;;5.90;2.25;;;;;;;25.34;68.47;100256.95;1717013;83;21213;-78
2021/07/07 14:16:31;;;;;;;4.47;2.35;;;;;;;25.38;69.95;100263.69;1725736;83;21743;-78
2021/07/07 14:19:37;;;;;;;8.20;2.20;;;;;;;25.45;67.86;100259.52;1717204;83;21346;-78
2021/07/07 14:22:43;;;;;;;8.38;1.98;;;;;;;25.49;66.62;100262.58;1727248;83;21311;-78
2021/07/07 14:25:48;;;;;;;5.12;1.82;;;;;;;25.57;65.53;100269.05;1716199;83;21827;-78
2021/07/07 14:28:54;;;;;;;5.42;2.42;;;;;;;25.61;64.91;100263.75;1727351;83;21196;-78
2021/07/07 14:32:02;;;;;;;11.00;2.30;;;;;;;25.56;66.32;100256.73;1715955;83;21322;-78